createdAt,value
2017-05-10T00:00:24.343Z,1008.51
2017-05-10T00:01:34.619Z,1008.48
2017-05-10T00:02:44.589Z,1008.47
2017-05-10T00:03:55.111Z,1008.45
2017-05-10T00:05:05.393Z,1008.46
2017-05-10T00:06:15.350Z,1008.41
2017-05-10T00:07:25.333Z,1008.42
2017-05-10T00:08:34.991Z,1008.4
2017-05-10T00:09:45.526Z,1008.42
2017-05-10T00:10:55.797Z,1008.4
2017-05-10T00:12:06.092Z,1008.36
2017-05-10T00:13:16.365Z,1008.36
2017-05-10T00:14:26.650Z,1008.38
2017-05-10T00:15:36.865Z,1008.35
2017-05-10T00:16:46.835Z,1008.33
2017-05-10T00:17:57.123Z,1008.28
2017-05-10T00:19:07.393Z,1008.26
2017-05-10T00:20:17.682Z,1008.24
2017-05-10T00:21:27.897Z,1008.24
2017-05-10T00:22:37.868Z,1008.21
2017-05-10T00:23:48.158Z,1008.21
2017-05-10T00:24:58.445Z,1008.17
2017-05-10T00:26:08.408Z,1008.19
2017-05-10T00:27:18.310Z,1008.18
2017-05-10T00:28:28.593Z,1008.16
2017-05-10T00:29:38.873Z,1008.18
2017-05-10T00:30:49.157Z,1008.13
2017-05-10T00:31:59.134Z,1008.18
2017-05-10T00:33:09.664Z,1008.18
2017-05-10T00:34:19.981Z,1008.15
2017-05-10T00:35:29.645Z,1008.11
2017-05-10T00:36:39.931Z,1008.13
2017-05-10T00:37:50.221Z,1008.08
2017-05-10T00:39:00.746Z,1008.08
2017-05-10T00:40:11.026Z,1008.06
2017-05-10T00:41:21.306Z,1008.07
2017-05-10T00:42:31.586Z,1008.05
2017-05-10T00:43:41.559Z,1008.05
2017-05-10T00:44:51.778Z,1008.03
2017-05-10T00:46:01.454Z,1008.05
2017-05-10T00:47:11.740Z,1008.03
2017-05-10T00:48:21.707Z,1007.99
2017-05-10T00:49:32.014Z,1007.97
2017-05-10T00:50:42.538Z,1007.95
2017-05-10T00:51:52.822Z,1007.91
2017-05-10T00:53:03.101Z,1007.91
2017-05-10T00:54:13.081Z,1007.88
2017-05-10T00:55:23.368Z,1007.88
2017-05-10T00:56:33.898Z,1007.86
2017-05-10T00:57:44.377Z,1007.82
2017-05-10T00:58:54.353Z,1007.84
2017-05-10T01:00:04.647Z,1007.86
2017-05-10T01:01:14.924Z,1007.76
2017-05-10T01:02:25.456Z,1007.79
2017-05-10T01:03:35.428Z,1007.81
2017-05-10T01:04:45.140Z,1007.84
2017-05-10T01:05:55.104Z,1007.84
2017-05-10T01:07:05.071Z,1007.89
2017-05-10T01:08:15.294Z,1007.85
2017-05-10T01:09:25.261Z,1007.8
2017-05-10T01:10:35.548Z,1007.75
2017-05-10T01:11:45.825Z,1007.78
2017-05-10T01:12:56.102Z,1007.75
2017-05-10T01:14:06.679Z,1007.75
2017-05-10T01:15:16.965Z,1007.77
2017-05-10T01:16:26.930Z,1007.75
2017-05-10T01:17:37.215Z,1007.71
2017-05-10T01:18:47.185Z,1007.68
2017-05-10T01:19:57.728Z,1007.68
2017-05-10T01:21:08.005Z,1007.66
2017-05-10T01:22:18.279Z,1007.58
2017-05-10T01:23:28.251Z,1007.64
2017-05-10T01:24:38.215Z,1007.56
2017-05-10T01:25:48.437Z,1007.55
2017-05-10T01:26:58.397Z,1007.52
2017-05-10T01:28:08.376Z,1007.54
2017-05-10T01:29:18.665Z,1007.49
2017-05-10T01:30:28.943Z,1007.47
2017-05-10T01:31:39.486Z,1007.47
2017-05-10T01:32:49.765Z,1007.49
2017-05-10T01:33:59.429Z,1007.48
2017-05-10T01:35:09.705Z,1007.43
2017-05-10T01:36:19.980Z,1007.45
2017-05-10T01:37:30.500Z,1007.4
2017-05-10T01:38:40.817Z,1007.41
2017-05-10T01:39:51.091Z,1007.4
2017-05-10T01:41:01.382Z,1007.38
2017-05-10T01:42:11.662Z,1007.38
2017-05-10T01:43:21.883Z,1007.37
2017-05-10T01:44:32.168Z,1007.39
2017-05-10T01:45:42.139Z,1007.35
2017-05-10T01:46:52.116Z,1007.36
2017-05-10T01:48:02.084Z,1007.37
2017-05-10T01:49:12.609Z,1007.38
2017-05-10T01:50:22.898Z,1007.36
2017-05-10T01:51:33.178Z,1007.36
2017-05-10T01:52:43.136Z,1007.4
2017-05-10T01:53:53.415Z,1007.38
2017-05-10T01:55:03.937Z,1007.36
2017-05-10T01:56:14.209Z,1007.36
2017-05-10T01:57:23.865Z,1007.34
2017-05-10T01:58:34.159Z,1007.28
2017-05-10T01:59:44.461Z,1007.28
2017-05-10T02:00:54.989Z,1007.26
2017-05-10T02:02:05.278Z,1007.23
2017-05-10T02:03:15.554Z,1007.24
2017-05-10T02:04:25.225Z,1007.18
2017-05-10T02:05:35.505Z,1007.2
2017-05-10T02:06:46.031Z,1007.18
2017-05-10T02:07:56.562Z,1007.13
2017-05-10T02:09:06.843Z,1007.1
2017-05-10T02:10:16.533Z,1007.18
2017-05-10T02:11:26.495Z,1007.16
2017-05-10T02:12:36.394Z,1007.13
2017-05-10T02:13:46.694Z,1007.17
2017-05-10T02:14:56.671Z,1007.14
2017-05-10T02:16:06.949Z,1007.12
2017-05-10T02:17:17.230Z,1007.1
2017-05-10T02:18:27.445Z,1007.12
2017-05-10T02:19:37.738Z,1007.13
2017-05-10T02:20:48.016Z,1007.12
2017-05-10T02:21:58.295Z,1007.12
2017-05-10T02:23:08.267Z,1007.17
2017-05-10T02:24:18.489Z,1007.19
2017-05-10T02:25:28.144Z,1007.16
2017-05-10T02:26:38.423Z,1007.19
2017-05-10T02:27:48.398Z,1007.19
2017-05-10T02:28:58.368Z,1007.19
2017-05-10T02:30:08.899Z,1007.12
2017-05-10T02:31:18.875Z,1007.16
2017-05-10T02:32:28.842Z,1007.11
2017-05-10T02:33:39.118Z,1007.1
2017-05-10T02:34:49.091Z,1007.08
2017-05-10T02:35:59.318Z,1007.06
2017-05-10T02:37:09.595Z,1007.04
2017-05-10T02:38:19.866Z,1006.97
2017-05-10T02:39:30.148Z,1006.96
2017-05-10T02:40:40.427Z,1006.98
2017-05-10T02:41:50.956Z,1007
2017-05-10T02:43:00.605Z,1007
2017-05-10T02:44:10.886Z,1007.04
2017-05-10T02:45:21.185Z,1007.05
2017-05-10T02:46:31.458Z,1007
2017-05-10T02:47:41.982Z,1006.98
2017-05-10T02:48:51.645Z,1006.94
2017-05-10T02:50:01.623Z,1006.93
2017-05-10T02:51:11.910Z,1006.94
2017-05-10T02:52:22.419Z,1006.94
2017-05-10T02:53:32.933Z,1006.97
2017-05-10T02:54:42.906Z,1006.92
2017-05-10T02:55:52.886Z,1007.02
2017-05-10T02:57:03.224Z,1006.99
2017-05-10T02:58:13.501Z,1006.93
2017-05-10T02:59:24.038Z,1006.92
2017-05-10T03:00:33.999Z,1006.93
2017-05-10T03:01:44.285Z,1006.9
2017-05-10T03:02:54.253Z,1006.9
2017-05-10T03:04:04.527Z,1006.9
2017-05-10T03:05:14.763Z,1006.9
2017-05-10T03:06:25.037Z,1006.9
2017-05-10T03:07:35.009Z,1006.88
2017-05-10T03:08:45.291Z,1006.88
2017-05-10T03:09:55.579Z,1006.87
2017-05-10T03:11:06.108Z,1006.86
2017-05-10T03:12:16.393Z,1006.82
2017-05-10T03:13:26.676Z,1006.8
2017-05-10T03:14:36.956Z,1006.81
2017-05-10T03:15:47.249Z,1006.77
2017-05-10T03:16:57.780Z,1006.78
2017-05-10T03:18:07.738Z,1006.74
2017-05-10T03:19:17.706Z,1006.73
2017-05-10T03:20:27.994Z,1006.7
2017-05-10T03:21:37.960Z,1006.7
2017-05-10T03:22:48.987Z,1006.69
2017-05-10T03:23:58.983Z,1006.65
2017-05-10T03:25:09.295Z,1006.64
2017-05-10T03:26:18.956Z,1006.66
2017-05-10T03:27:28.932Z,1006.64
2017-05-10T03:28:39.460Z,1006.62
2017-05-10T03:29:49.433Z,1006.62
2017-05-10T03:30:59.716Z,1006.6
2017-05-10T03:32:09.689Z,1006.62
2017-05-10T03:33:19.658Z,1006.62
2017-05-10T03:34:30.195Z,1006.58
2017-05-10T03:35:40.475Z,1006.55
2017-05-10T03:36:50.750Z,1006.54
2017-05-10T03:38:01.034Z,1006.55
2017-05-10T03:39:11.044Z,1006.53
2017-05-10T03:40:21.573Z,1006.55
2017-05-10T03:41:31.854Z,1006.56
2017-05-10T03:42:42.141Z,1006.59
2017-05-10T03:43:52.128Z,1006.55
2017-05-10T03:45:02.103Z,1006.53
2017-05-10T03:46:12.317Z,1006.56
2017-05-10T03:47:22.291Z,1006.57
2017-05-10T03:48:32.569Z,1006.53
2017-05-10T03:49:42.843Z,1006.54
2017-05-10T03:50:52.819Z,1006.53
2017-05-10T03:52:03.346Z,1006.56
2017-05-10T03:53:13.625Z,1006.52
2017-05-10T03:54:23.922Z,1006.54
2017-05-10T03:55:34.200Z,1006.53
2017-05-10T03:56:44.493Z,1006.48
2017-05-10T03:57:55.030Z,1006.52
2017-05-10T03:59:05.006Z,1006.51
2017-05-10T04:00:15.287Z,1006.51
2017-05-10T04:01:25.603Z,1006.56
2017-05-10T04:02:35.880Z,1006.63
2017-05-10T04:03:46.423Z,1006.6
2017-05-10T04:04:56.717Z,1006.65
2017-05-10T04:06:06.996Z,1006.6
2017-05-10T04:07:17.302Z,1006.61
2017-05-10T04:08:27.273Z,1006.6
2017-05-10T04:09:37.868Z,1006.62
2017-05-10T04:10:48.038Z,1006.58
2017-05-10T04:11:58.006Z,1006.6
2017-05-10T04:13:07.986Z,1006.63
2017-05-10T04:14:17.960Z,1006.64
2017-05-10T04:15:28.506Z,1006.61
2017-05-10T04:16:38.482Z,1006.6
2017-05-10T04:17:48.759Z,1006.59
2017-05-10T04:18:58.117Z,1006.6
2017-05-10T04:20:08.395Z,1006.61
2017-05-10T04:21:18.942Z,1006.6
2017-05-10T04:22:28.963Z,1006.62
2017-05-10T04:23:39.235Z,1006.63
2017-05-10T04:24:49.511Z,1006.59
2017-05-10T04:25:59.842Z,1006.62
2017-05-10T04:27:10.366Z,1006.56
2017-05-10T04:28:20.392Z,1006.57
2017-05-10T04:29:30.684Z,1006.55
2017-05-10T04:30:40.961Z,1006.55
2017-05-10T04:31:51.248Z,1006.52
2017-05-10T04:33:01.782Z,1006.53
2017-05-10T04:34:12.059Z,1006.48
2017-05-10T04:35:22.335Z,1006.48
2017-05-10T04:36:32.618Z,1006.5
2017-05-10T04:37:42.891Z,1006.48
2017-05-10T04:38:53.116Z,1006.51
2017-05-10T04:40:03.406Z,1006.48
2017-05-10T04:41:13.380Z,1006.44
2017-05-10T04:42:23.749Z,1006.47
2017-05-10T04:43:33.718Z,1006.46
2017-05-10T04:44:43.935Z,1006.41
2017-05-10T04:45:53.904Z,1006.43
2017-05-10T04:47:04.211Z,1006.46
2017-05-10T04:48:14.499Z,1006.48
2017-05-10T04:49:24.775Z,1006.49
2017-05-10T04:50:34.990Z,1006.55
2017-05-10T04:51:44.966Z,1006.53
2017-05-10T04:52:55.252Z,1006.54
2017-05-10T04:54:05.542Z,1006.51
2017-05-10T04:55:15.833Z,1006.48
2017-05-10T04:56:26.357Z,1006.52
2017-05-10T04:57:36.632Z,1006.52
2017-05-10T04:58:46.929Z,1006.48
2017-05-10T04:59:56.962Z,1006.47
2017-05-10T05:01:07.271Z,1006.47
2017-05-10T05:02:17.823Z,1006.49
2017-05-10T05:03:28.097Z,1006.43
2017-05-10T05:04:38.389Z,1006.46
2017-05-10T05:05:48.352Z,1006.47
2017-05-10T05:06:58.338Z,1006.43
2017-05-10T05:08:08.900Z,1006.45
2017-05-10T05:09:18.888Z,1006.46
2017-05-10T05:10:28.862Z,1006.44
2017-05-10T05:11:39.152Z,1006.46
2017-05-10T05:12:49.136Z,1006.43
2017-05-10T05:13:59.371Z,1006.44
2017-05-10T05:15:09.648Z,1006.44
2017-05-10T05:16:19.935Z,1006.46
2017-05-10T05:17:29.893Z,1006.49
2017-05-10T05:18:39.876Z,1006.46
2017-05-10T05:19:50.111Z,1006.49
2017-05-10T05:21:00.403Z,1006.46
2017-05-10T05:22:10.678Z,1006.44
2017-05-10T05:23:20.388Z,1006.44
2017-05-10T05:24:30.432Z,1006.44
2017-05-10T05:25:40.967Z,1006.43
2017-05-10T05:26:51.258Z,1006.44
2017-05-10T05:28:01.544Z,1006.46
2017-05-10T05:29:11.827Z,1006.42
2017-05-10T05:30:22.111Z,1006.4
2017-05-10T05:31:32.661Z,1006.38
2017-05-10T05:32:43.120Z,1006.4
2017-05-10T05:33:53.108Z,1006.34
2017-05-10T05:35:03.446Z,1006.37
2017-05-10T05:36:13.728Z,1006.37
2017-05-10T05:37:23.941Z,1006.38
2017-05-10T05:38:33.904Z,1006.32
2017-05-10T05:39:43.590Z,1006.34
2017-05-10T05:40:53.571Z,1006.36
2017-05-10T05:42:03.536Z,1006.31
2017-05-10T05:43:13.780Z,1006.27
2017-05-10T05:44:24.083Z,1006.33
2017-05-10T05:45:34.357Z,1006.29
2017-05-10T05:46:44.651Z,1006.3
2017-05-10T05:47:54.925Z,1006.31
2017-05-10T05:49:05.476Z,1006.28
2017-05-10T05:50:15.538Z,1006.28
2017-05-10T05:51:25.512Z,1006.26
2017-05-10T05:52:35.249Z,1006.26
2017-05-10T05:53:45.542Z,1006.26
2017-05-10T05:54:56.122Z,1006.26
2017-05-10T05:56:06.412Z,1006.28
2017-05-10T05:57:16.404Z,1006.3
2017-05-10T05:58:26.068Z,1006.28
2017-05-10T05:59:36.048Z,1006.25
2017-05-10T06:00:45.960Z,1006.28
2017-05-10T06:01:55.923Z,1006.28
2017-05-10T06:03:06.224Z,1006.26
2017-05-10T06:04:16.200Z,1006.27
2017-05-10T06:05:26.531Z,1006.23
2017-05-10T06:06:36.778Z,1006.26
2017-05-10T06:07:47.068Z,1006.25
2017-05-10T06:08:57.070Z,1006.27
2017-05-10T06:10:07.427Z,1006.22
2017-05-10T06:11:17.417Z,1006.28
2017-05-10T06:12:27.950Z,1006.28
2017-05-10T06:13:38.251Z,1006.27
2017-05-10T06:14:48.537Z,1006.27
2017-05-10T06:15:58.840Z,1006.3
2017-05-10T06:17:08.817Z,1006.27
2017-05-10T06:18:19.345Z,1006.27
2017-05-10T06:19:29.325Z,1006.28
2017-05-10T06:20:39.628Z,1006.26
2017-05-10T06:21:49.944Z,1006.27
2017-05-10T06:23:00.232Z,1006.22
2017-05-10T06:24:10.461Z,1006.25
2017-05-10T06:25:20.749Z,1006.22
2017-05-10T06:26:30.761Z,1006.24
2017-05-10T06:27:41.059Z,1006.23
2017-05-10T06:28:51.359Z,1006.24
2017-05-10T06:30:01.901Z,1006.29
2017-05-10T06:31:12.210Z,1006.26
2017-05-10T06:32:22.525Z,1006.28
2017-05-10T06:33:32.503Z,1006.25
2017-05-10T06:34:42.805Z,1006.23
2017-05-10T06:35:53.337Z,1006.26
2017-05-10T06:37:03.646Z,1006.25
2017-05-10T06:38:13.322Z,1006.26
2017-05-10T06:39:23.605Z,1006.27
2017-05-10T06:40:33.911Z,1006.28
2017-05-10T06:41:44.460Z,1006.25
2017-05-10T06:42:54.784Z,1006.3
2017-05-10T06:44:05.071Z,1006.25
2017-05-10T06:45:15.048Z,1006.22
2017-05-10T06:46:25.347Z,1006.25
2017-05-10T06:47:35.884Z,1006.23
2017-05-10T06:48:46.187Z,1006.21
2017-05-10T06:49:56.492Z,1006.27
2017-05-10T06:51:06.480Z,1006.21
2017-05-10T06:52:16.781Z,1006.19
2017-05-10T06:53:27.320Z,1006.24
2017-05-10T06:54:37.618Z,1006.23
2017-05-10T06:55:47.912Z,1006.27
2017-05-10T06:56:58.207Z,1006.25
2017-05-10T06:58:08.175Z,1006.24
2017-05-10T06:59:18.717Z,1006.23
2017-05-10T07:00:29.008Z,1006.25
2017-05-10T07:01:39.006Z,1006.2
2017-05-10T07:02:48.981Z,1006.2
2017-05-10T07:03:58.641Z,1006.18
2017-05-10T07:05:08.886Z,1006.22
2017-05-10T07:06:19.167Z,1006.22
2017-05-10T07:07:29.477Z,1006.22
2017-05-10T07:08:39.766Z,1006.25
2017-05-10T07:09:50.069Z,1006.21
2017-05-10T07:11:00.668Z,1006.17
2017-05-10T07:12:10.639Z,1006.2
2017-05-10T07:13:20.948Z,1006.2
2017-05-10T07:14:31.254Z,1006.24
2017-05-10T07:15:41.553Z,1006.22
2017-05-10T07:16:52.093Z,1006.24
2017-05-10T07:18:02.380Z,1006.21
2017-05-10T07:19:12.683Z,1006.23
2017-05-10T07:20:22.664Z,1006.18
2017-05-10T07:21:32.336Z,1006.21
2017-05-10T07:22:42.570Z,1006.18
2017-05-10T07:23:52.859Z,1006.16
2017-05-10T07:25:02.530Z,1006.15
2017-05-10T07:26:12.517Z,1006.14
2017-05-10T07:27:22.210Z,1006.2
2017-05-10T07:28:32.795Z,1006.14
2017-05-10T07:29:43.078Z,1006.16
2017-05-10T07:30:53.372Z,1006.19
2017-05-10T07:32:03.667Z,1006.17
2017-05-10T07:33:13.672Z,1006.15
2017-05-10T07:34:24.222Z,1006.12
2017-05-10T07:35:34.520Z,1006.13
2017-05-10T07:36:44.817Z,1006.09
2017-05-10T07:37:55.130Z,1006.11
2017-05-10T07:39:05.112Z,1006.07
2017-05-10T07:40:15.656Z,1006.08
2017-05-10T07:41:25.941Z,1006.08
2017-05-10T07:42:36.241Z,1006.11
2017-05-10T07:43:46.575Z,1006.11
2017-05-10T07:44:56.888Z,1006.08
2017-05-10T07:46:07.107Z,1006.12
2017-05-10T07:47:17.094Z,1006.11
2017-05-10T07:48:27.389Z,1006.08
2017-05-10T07:49:37.674Z,1006.13
2017-05-10T07:50:48.010Z,1006.1
2017-05-10T07:51:58.243Z,1006.07
2017-05-10T07:53:08.296Z,1006.11
2017-05-10T07:54:18.625Z,1006.11
2017-05-10T07:55:28.984Z,1006.1
2017-05-10T07:56:39.002Z,1006.11
2017-05-10T07:57:49.550Z,1006.12
2017-05-10T07:58:59.834Z,1006.11
2017-05-10T08:00:09.816Z,1006.13
2017-05-10T08:01:20.149Z,1006.09
2017-05-10T08:02:30.477Z,1006.09
2017-05-10T08:03:41.037Z,1006.11
2017-05-10T08:04:50.771Z,1006.12
2017-05-10T08:06:01.094Z,1006.08
2017-05-10T08:07:10.458Z,1006.06
2017-05-10T08:08:20.768Z,1006.06
2017-05-10T08:09:31.330Z,1006.09
2017-05-10T08:10:41.631Z,1006.06
2017-05-10T08:11:51.941Z,1006.05
2017-05-10T08:13:02.278Z,1006
2017-05-10T08:14:12.593Z,1006.03
2017-05-10T08:15:23.142Z,1006
2017-05-10T08:16:33.476Z,1006
2017-05-10T08:17:43.780Z,1006.03
2017-05-10T08:18:54.097Z,1006
2017-05-10T08:20:04.084Z,1005.98
2017-05-10T08:21:14.617Z,1005.94
2017-05-10T08:22:24.927Z,1005.94
2017-05-10T08:23:35.271Z,1005.92
2017-05-10T08:24:45.566Z,1005.94
2017-05-10T08:25:55.851Z,1005.89
2017-05-10T08:27:06.080Z,1005.88
2017-05-10T08:28:16.379Z,1005.87
2017-05-10T08:29:26.701Z,1005.89
2017-05-10T08:30:37.021Z,1005.87
2017-05-10T08:31:46.696Z,1005.86
2017-05-10T08:32:56.624Z,1005.88
2017-05-10T08:34:06.296Z,1005.92
2017-05-10T08:35:16.608Z,1005.91
2017-05-10T08:36:26.644Z,1005.92
2017-05-10T08:37:36.306Z,1005.9
2017-05-10T08:38:46.862Z,1005.92
2017-05-10T08:39:56.868Z,1005.95
2017-05-10T08:41:07.164Z,1005.86
2017-05-10T08:42:16.828Z,1005.91
2017-05-10T08:43:26.806Z,1005.83
2017-05-10T08:44:37.037Z,1005.85
2017-05-10T08:45:47.338Z,1005.92
2017-05-10T08:46:57.638Z,1005.85
2017-05-10T08:48:07.621Z,1005.87
2017-05-10T08:49:17.915Z,1005.87
2017-05-10T08:50:27.836Z,1005.9
2017-05-10T08:51:37.817Z,1005.85
2017-05-10T08:52:48.108Z,1005.79
2017-05-10T08:53:58.098Z,1005.79
2017-05-10T08:55:08.406Z,1005.78
2017-05-10T08:56:18.945Z,1005.76
2017-05-10T08:57:29.224Z,1005.88
2017-05-10T08:58:39.521Z,1005.89
2017-05-10T08:59:49.838Z,1005.87
2017-05-10T09:00:59.505Z,1005.88
2017-05-10T09:02:09.735Z,1005.83
2017-05-10T09:03:20.019Z,1005.81
2017-05-10T09:04:30.336Z,1005.79
2017-05-10T09:05:40.665Z,1005.79
2017-05-10T09:06:50.652Z,1005.76
2017-05-10T09:08:01.185Z,1005.78
2017-05-10T09:09:10.896Z,1005.76
2017-05-10T09:10:20.894Z,1005.79
2017-05-10T09:11:30.873Z,1005.7
2017-05-10T09:12:41.266Z,1005.77
2017-05-10T09:13:51.807Z,1005.75
2017-05-10T09:15:02.135Z,1005.77
2017-05-10T09:16:12.432Z,1005.78
2017-05-10T09:17:22.444Z,1005.73
2017-05-10T09:18:32.478Z,1005.77
2017-05-10T09:19:42.794Z,1005.72
2017-05-10T09:20:53.419Z,1005.73
2017-05-10T09:22:03.472Z,1005.73
2017-05-10T09:23:12.826Z,1005.71
2017-05-10T09:24:22.813Z,1005.71
2017-05-10T09:25:33.349Z,1005.65
2017-05-10T09:26:43.630Z,1005.65
2017-05-10T09:27:53.921Z,1005.71
2017-05-10T09:29:04.248Z,1005.66
2017-05-10T09:30:14.548Z,1005.71
2017-05-10T09:31:25.086Z,1005.67
2017-05-10T09:32:35.378Z,1005.64
2017-05-10T09:33:45.673Z,1005.69
2017-05-10T09:34:55.985Z,1005.66
2017-05-10T09:36:05.968Z,1005.65
2017-05-10T09:37:16.253Z,1005.59
2017-05-10T09:38:26.575Z,1005.62
2017-05-10T09:39:36.578Z,1005.62
2017-05-10T09:40:46.561Z,1005.63
2017-05-10T09:41:56.230Z,1005.59
2017-05-10T09:43:06.801Z,1005.58
2017-05-10T09:44:16.811Z,1005.56
2017-05-10T09:45:26.796Z,1005.59
2017-05-10T09:46:37.092Z,1005.56
2017-05-10T09:47:47.377Z,1005.54
2017-05-10T09:48:57.914Z,1005.54
2017-05-10T09:50:08.197Z,1005.6
2017-05-10T09:51:18.191Z,1005.58
2017-05-10T09:52:28.224Z,1005.53
2017-05-10T09:53:38.521Z,1005.54
2017-05-10T09:54:49.070Z,1005.5
2017-05-10T09:55:59.367Z,1005.6
2017-05-10T09:57:09.346Z,1005.5
2017-05-10T09:58:19.743Z,1005.5
2017-05-10T09:59:30.067Z,1005.48
2017-05-10T10:00:40.640Z,1005.51
2017-05-10T10:01:50.993Z,1005.46
2017-05-10T10:03:01.294Z,1005.43
2017-05-10T10:04:10.950Z,1005.47
2017-05-10T10:05:21.298Z,1005.43
2017-05-10T10:06:31.839Z,1005.47
2017-05-10T10:07:42.129Z,1005.42
2017-05-10T10:08:52.436Z,1005.48
2017-05-10T10:10:02.782Z,1005.45
2017-05-10T10:11:12.749Z,1005.34
2017-05-10T10:12:23.291Z,1005.31
2017-05-10T10:13:33.580Z,1005.34
2017-05-10T10:14:43.249Z,1005.32
2017-05-10T10:15:53.534Z,1005.3
2017-05-10T10:17:03.216Z,1005.25
2017-05-10T10:18:13.497Z,1005.32
2017-05-10T10:19:23.801Z,1005.31
2017-05-10T10:20:33.798Z,1005.26
2017-05-10T10:21:44.090Z,1005.27
2017-05-10T10:22:54.314Z,1005.25
2017-05-10T10:24:04.546Z,1005.29
2017-05-10T10:25:14.838Z,1005.24
2017-05-10T10:26:25.123Z,1005.28
2017-05-10T10:27:35.122Z,1005.25
2017-05-10T10:28:45.412Z,1005.26
2017-05-10T10:29:55.653Z,1005.23
2017-05-10T10:31:05.311Z,1005.23
2017-05-10T10:32:15.614Z,1005.19
2017-05-10T10:33:25.621Z,1005.25
2017-05-10T10:34:35.642Z,1005.29
2017-05-10T10:35:46.240Z,1005.25
2017-05-10T10:36:56.215Z,1005.24
2017-05-10T10:38:06.518Z,1005.27
2017-05-10T10:39:16.815Z,1005.27
2017-05-10T10:40:27.178Z,1005.25
2017-05-10T10:41:37.088Z,1005.24
2017-05-10T10:42:47.076Z,1005.27
2017-05-10T10:43:57.054Z,1005.29
2017-05-10T10:45:06.732Z,1005.26
2017-05-10T10:46:16.832Z,1005.26
2017-05-10T10:47:27.300Z,1005.32
2017-05-10T10:48:37.648Z,1005.26
2017-05-10T10:49:47.994Z,1005.3
2017-05-10T10:50:57.996Z,1005.31
2017-05-10T10:52:07.997Z,1005.31
2017-05-10T10:53:18.597Z,1005.32
2017-05-10T10:54:28.884Z,1005.33
2017-05-10T10:55:39.207Z,1005.3
2017-05-10T10:56:49.498Z,1005.33
2017-05-10T10:57:59.483Z,1005.35
2017-05-10T10:59:10.026Z,1005.34
2017-05-10T11:00:20.333Z,1005.3
2017-05-10T11:01:30.303Z,1005.34
2017-05-10T11:02:40.606Z,1005.32
2017-05-10T11:03:50.898Z,1005.31
2017-05-10T11:05:01.125Z,1005.28
2017-05-10T11:06:10.815Z,1005.34
2017-05-10T11:07:21.106Z,1005.33
2017-05-10T11:08:31.416Z,1005.38
2017-05-10T11:09:41.726Z,1005.34
2017-05-10T11:10:52.271Z,1005.31
2017-05-10T11:12:02.579Z,1005.38
2017-05-10T11:13:12.584Z,1005.36
2017-05-10T11:14:22.886Z,1005.32
2017-05-10T11:15:33.177Z,1005.31
2017-05-10T11:16:43.512Z,1005.29
2017-05-10T11:17:53.806Z,1005.34
2017-05-10T11:19:04.111Z,1005.29
2017-05-10T11:20:13.794Z,1005.3
2017-05-10T11:21:24.094Z,1005.29
2017-05-10T11:22:34.605Z,1005.35
2017-05-10T11:23:44.949Z,1005.28
2017-05-10T11:24:55.235Z,1005.29
2017-05-10T11:26:05.533Z,1005.3
2017-05-10T11:27:15.837Z,1005.25
2017-05-10T11:28:26.083Z,1005.36
2017-05-10T11:29:36.377Z,1005.31
2017-05-10T11:30:46.702Z,1005.27
2017-05-10T11:31:56.698Z,1005.33
2017-05-10T11:33:07.055Z,1005.26
2017-05-10T11:34:17.588Z,1005.29
2017-05-10T11:35:27.876Z,1005.21
2017-05-10T11:36:37.872Z,1005.18
2017-05-10T11:37:47.857Z,1005.14
2017-05-10T11:38:58.149Z,1005.14
2017-05-10T11:40:08.704Z,1005.13
2017-05-10T11:41:18.716Z,1005.11
2017-05-10T11:42:28.405Z,1005.17
2017-05-10T11:43:38.067Z,1005.12
2017-05-10T11:44:48.244Z,1005.1
2017-05-10T11:45:58.810Z,1005.13
2017-05-10T11:47:08.802Z,1005.18
2017-05-10T11:48:19.109Z,1005.12
2017-05-10T11:49:29.407Z,1005.21
2017-05-10T11:50:39.098Z,1005.18
2017-05-10T11:51:49.680Z,1005.18
2017-05-10T11:52:59.992Z,1005.18
2017-05-10T11:54:10.345Z,1005.14
2017-05-10T11:55:20.676Z,1005.1
2017-05-10T11:56:31.259Z,1005.13
2017-05-10T11:57:41.541Z,1005.14
2017-05-10T11:58:51.537Z,1005.15
2017-05-10T12:00:01.850Z,1005.12
2017-05-10T12:01:11.840Z,1005.15
2017-05-10T12:02:21.557Z,1005.1
2017-05-10T12:03:32.123Z,1005.12
2017-05-10T12:04:41.794Z,1005.09
2017-05-10T12:05:51.492Z,1005.09
2017-05-10T12:07:01.821Z,1005.1
2017-05-10T12:08:11.807Z,1005.08
2017-05-10T12:09:22.323Z,1005.15
2017-05-10T12:10:32.636Z,1005.18
2017-05-10T12:11:42.950Z,1005.13
2017-05-10T12:12:53.243Z,1005.19
2017-05-10T12:14:03.229Z,1005.2
2017-05-10T12:15:13.456Z,1005.2
2017-05-10T12:16:23.779Z,1005.18
2017-05-10T12:17:34.099Z,1005.17
2017-05-10T12:18:44.392Z,1005.17
2017-05-10T12:19:54.382Z,1005.14
2017-05-10T12:21:04.613Z,1005.15
2017-05-10T12:22:14.635Z,1005.11
2017-05-10T12:23:24.639Z,1005.13
2017-05-10T12:24:34.611Z,1005.11
2017-05-10T12:25:44.926Z,1005.13
2017-05-10T12:26:55.475Z,1005.14
2017-05-10T12:28:05.775Z,1005.09
2017-05-10T12:29:15.750Z,1005.13
2017-05-10T12:30:25.733Z,1005.07
2017-05-10T12:31:35.712Z,1005.06
2017-05-10T12:32:46.353Z,1005.07
2017-05-10T12:33:56.647Z,1005.04
2017-05-10T12:35:06.953Z,1005.02
2017-05-10T12:36:17.249Z,1005.02
2017-05-10T12:37:27.548Z,1004.97
2017-05-10T12:38:37.797Z,1004.91
2017-05-10T12:39:48.101Z,1004.93
2017-05-10T12:40:58.100Z,1004.96
2017-05-10T12:42:08.075Z,1004.98
2017-05-10T12:43:18.071Z,1004.87
2017-05-10T12:44:27.998Z,1004.86
2017-05-10T12:45:38.293Z,1004.84
2017-05-10T12:46:48.277Z,1004.88
2017-05-10T12:47:58.264Z,1004.84
2017-05-10T12:49:08.311Z,1004.89
2017-05-10T12:50:18.553Z,1004.85
2017-05-10T12:51:28.543Z,1004.83
2017-05-10T12:52:38.853Z,1004.88
2017-05-10T12:53:49.165Z,1004.89
2017-05-10T12:54:59.475Z,1004.88
2017-05-10T12:56:10.035Z,1004.83
2017-05-10T12:57:20.021Z,1004.83
2017-05-10T12:58:30.012Z,1004.82
2017-05-10T12:59:40.322Z,1004.81
2017-05-10T13:00:50.611Z,1004.83
2017-05-10T13:02:00.876Z,1004.8
2017-05-10T13:03:11.172Z,1004.86
2017-05-10T13:04:21.167Z,1004.8
2017-05-10T13:05:31.496Z,1004.81
2017-05-10T13:06:41.798Z,1004.81
2017-05-10T13:07:52.357Z,1004.81
2017-05-10T13:09:02.661Z,1004.79
2017-05-10T13:10:13.009Z,1004.76
2017-05-10T13:11:23.318Z,1004.78
2017-05-10T13:12:33.346Z,1004.73
2017-05-10T13:13:43.883Z,1004.7
2017-05-10T13:14:53.866Z,1004.65
2017-05-10T13:16:03.855Z,1004.66
2017-05-10T13:17:14.168Z,1004.66
2017-05-10T13:18:24.141Z,1004.64
2017-05-10T13:19:34.384Z,1004.62
2017-05-10T13:20:44.680Z,1004.58
2017-05-10T13:21:54.970Z,1004.55
2017-05-10T13:23:05.269Z,1004.56
2017-05-10T13:24:15.244Z,1004.59
2017-05-10T13:25:25.484Z,1004.61
2017-05-10T13:26:35.164Z,1004.55
2017-05-10T13:27:45.447Z,1004.57
2017-05-10T13:28:55.453Z,1004.53
2017-05-10T13:30:05.746Z,1004.53
2017-05-10T13:31:15.973Z,1004.54
2017-05-10T13:32:26.278Z,1004.52
2017-05-10T13:33:36.557Z,1004.51
2017-05-10T13:34:46.532Z,1004.49
2017-05-10T13:35:56.532Z,1004.47
2017-05-10T13:37:07.075Z,1004.47
2017-05-10T13:38:17.071Z,1004.5
2017-05-10T13:39:27.053Z,1004.39
2017-05-10T13:40:37.345Z,1004.44
2017-05-10T13:41:47.635Z,1004.44
2017-05-10T13:42:58.238Z,1004.46
2017-05-10T13:44:08.221Z,1004.44
2017-05-10T13:45:18.514Z,1004.41
2017-05-10T13:46:28.818Z,1004.39
2017-05-10T13:47:39.115Z,1004.4
2017-05-10T13:48:49.357Z,1004.39
2017-05-10T13:49:59.636Z,1004.29
2017-05-10T13:51:09.919Z,1004.42
2017-05-10T13:52:20.208Z,1004.41
2017-05-10T13:53:30.508Z,1004.42
2017-05-10T13:54:41.063Z,1004.44
2017-05-10T13:55:50.738Z,1004.44
2017-05-10T13:57:00.390Z,1004.39
2017-05-10T13:58:10.682Z,1004.36
2017-05-10T13:59:20.974Z,1004.41
2017-05-10T14:00:31.516Z,1004.38
2017-05-10T14:01:41.805Z,1004.42
2017-05-10T14:02:52.089Z,1004.4
2017-05-10T14:04:02.377Z,1004.38
2017-05-10T14:05:12.665Z,1004.4
2017-05-10T14:06:23.198Z,1004.41
2017-05-10T14:07:33.486Z,1004.35
2017-05-10T14:08:43.462Z,1004.34
2017-05-10T14:09:53.138Z,1004.36
2017-05-10T14:11:03.430Z,1004.38
2017-05-10T14:12:14.214Z,1004.36